Daily Tabular Data
[Select Refresh to Update]


6/2/20
Time         Wind Dir   Wind Spd  Wind Gust     Hum In   Humidity    Temp In       Temp  Raw Barom   Tot Rain Wind Chill Heat Ix In Heat Index  Dew Point  DailyRain   HourRain   RainRate
                            mph        mph          %          %         F         F         in         in         F         F         F         F         in         in      in/hr
12:00am           341          0          0         47         68       75.7       67.0      29.05      15.90       67.0       76.2       69.7       56.1       0.00       0.00      0.000
12:30am           342          0          0         47         67       75.5       65.8      29.04      15.90       65.8       76.0       68.4       54.6       0.00       0.00      0.000
1:00am            342          0          2         47         69       75.4       65.7      29.04      15.90       65.7       75.9       68.5       55.3       0.00       0.00      0.000
1:30am            342          0          0         47         74       75.2       64.7      29.04      15.90       64.7       75.7       68.1       56.2       0.00       0.00      0.000
2:00am            342          0          0         48         77       75.1       63.8      29.04      15.90       63.8       75.7       67.6       56.5       0.00       0.00      0.000
2:30am            300          0          0         48         80       74.9       63.1      29.03      15.90       63.1       75.5       67.3       56.8       0.00       0.00      0.000
3:00am            303          0          0         49         80       74.6       62.1      29.03      15.90       62.1       75.3       66.3       55.9       0.00       0.00      0.000
3:30am            328          0          3         49         82       74.3       61.6      29.03      15.90       61.6       75.0       66.1       56.1       0.00       0.00      0.000
4:00am            328          0          0         50         83       74.1       61.3      29.03      15.90       61.3       74.9       65.9       56.1       0.00       0.00      0.000
4:30am            334          0          1         50         83       73.8       61.2      29.04      15.90       61.2       74.6       65.8       56.0       0.00       0.00      0.000
5:00am            338          0          1         50         83       73.6       61.1      29.03      15.90       61.1       74.4       65.7       55.9       0.00       0.00      0.000
5:30am            340          0          0         50         79       73.4       62.9      29.05      15.90       62.9       74.2       67.0       56.3       0.00       0.00      0.000
6:00am            343          0          2         50         79       73.2       61.3      29.05      15.90       61.3       74.0       65.4       54.7       0.00       0.00      0.000
6:30am            343          0          0         50         80       73.0       61.3      29.06      15.90       61.3       73.8       65.5       55.1       0.00       0.00      0.000
7:00am            343          0          0         50         82       73.0       62.4      29.07      15.90       62.4       73.8       66.9       56.8       0.00       0.00      0.000
7:30am            343          0          0         51         76       73.0       65.1      29.07      15.90       65.1       73.9       68.8       57.4       0.00       0.00      0.000
8:00am             55          0          3         51         66       73.2       69.3      29.08      15.90       69.3       74.1       71.8       57.5       0.00       0.00      0.000
8:30am            351          0          5         50         65       73.7       71.9      29.09      15.90       71.9       74.5       74.3       59.5       0.00       0.00      0.000
9:00am            342          2          3         50         66       74.0       71.0      29.10      15.90       71.0       74.8       73.5       59.1       0.00       0.00      0.000
9:30am            254          0          3         50         60       74.3       74.0      29.10      15.90       74.0       75.1       75.8       59.2       0.00       0.00      0.000
10:00am           279          0          4         51         62       74.6       73.1      29.10      15.90       73.1       75.5       75.1       59.3       0.00       0.00      0.000
10:30am           249          1          4         51         62       74.9       73.4      29.11      15.90       73.4       75.8       75.4       59.6       0.00       0.00      0.000
11:00am           335          1          5         51         60       75.3       74.2      29.11      15.90       74.2       76.2       76.0       59.4       0.00       0.00      0.000
11:30am           277          4          4         51         55       75.7       76.4      29.12      15.90       76.4       76.6       77.7       59.1       0.00       0.00      0.000
12:00pm           303          0          5         51         54       76.1       78.1      29.11      15.90       78.1       77.0       79.3       60.1       0.00       0.00      0.000
12:30pm           286          3          5         50         52       76.6       79.1      29.11      15.90       79.1       77.4       80.1       60.0       0.00       0.00      0.000
1:00pm            300          0          6         50         54       77.0       79.0      29.11      15.90       79.0       77.8       80.2       61.0       0.00       0.00      0.000
1:30pm            300          3          6         50         52       77.2       80.4      29.10      15.90       80.4       78.0       81.4       61.2       0.00       0.00      0.000
2:00pm            273          2          5         50         52       77.6       82.0      29.10      15.90       82.0       78.4       83.1       62.7       0.00       0.00      0.000
2:30pm            292          0          7         50         53       78.1       82.3      29.10      15.90       82.3       78.9       83.6       63.5       0.00       0.00      0.000
3:00pm            342          1          6         50         52       78.5       83.9      29.10      15.90       83.9       79.3       85.4       64.4       0.00       0.00      0.000
3:30pm             53          1          8         49         51       78.3       83.0      29.10      15.90       83.0       79.0       84.1       63.0       0.00       0.00      0.000
4:00pm            317          2          7         49         51       74.9       83.0      29.09      15.90       83.0       75.6       84.1       63.0       0.00       0.00      0.000
4:30pm            227          2          8         48         54       77.0       80.4      29.10      15.90       80.4       77.6       81.6       62.2       0.00       0.00      0.000
5:00pm            175          1          7         49         51       78.0       81.2      29.09      15.90       81.2       78.7       82.1       61.4       0.00       0.00      0.000
5:30pm            271          0          6         47         55       75.0       79.8      29.09      15.90       79.8       75.5       81.1       62.2       0.00       0.00      0.000
6:00pm            343          0          3         46         55       74.2       79.4      29.09      15.90       79.4       74.6       80.7       61.8       0.00       0.00      0.000
6:30pm            286          3          9         46         63       76.1       75.9      29.09      15.90       75.9       76.5       78.0       62.4       0.00       0.00      0.000
7:00pm            286          2          5         50         64       78.0       74.0      29.10      15.90       74.0       78.8       76.3       61.1       0.00       0.00      0.000
7:30pm            307          0          5         47         66       77.7       73.4      29.11      15.90       73.4       78.2       75.9       61.4       0.00       0.00      0.000
8:00pm            292          0          3         49         66       77.4       71.9      29.12      15.90       71.9       78.1       74.4       59.9       0.00       0.00      0.000
8:30pm            289          2          5         49         68       77.2       70.1      29.11      15.90       70.1       77.9       72.8       59.1       0.00       0.00      0.000
9:00pm            283          0          3         48         69       76.9       68.8      29.12      15.90       68.8       77.5       71.6       58.2       0.00       0.00      0.000
9:30pm            286          0          4         51         79       76.7       67.2      29.13      15.90       67.2       77.6       71.3       60.5       0.00       0.00      0.000
10:00pm           286          0          4         52         85       76.7       66.5      29.14      15.90       66.5       77.7       71.4       61.9       0.00       0.00      0.000
10:30pm           310          0          4         54         87       76.4       65.5      29.13      15.90       65.5       77.6       70.7       61.5       0.00       0.00      0.000
11:00pm           301          2          3         55         88       76.0       65.1      29.12      15.90       65.1       77.3       70.4       61.5       0.00       0.00      0.000
11:30pm           304          0          2         56         89       75.6       65.1      29.11      15.90       65.1       77.0       70.6       61.8       0.00       0.00      0.000